Enter the Airport ICAO Code

Search by Airport or City

Current Weather

SBGL | Rio de Janeiro–Galeão International Airport

Rio de Janeiro, Brazil

Last Update 42 Minutes Ago

Clear Sky

Temperature of 21 ºC

Light to Moderate Winds from South

Temperature

21 ºC

Dew Point Temperature

17 ºC

Relative Humidity

78.03 %

Wind Direction

South (170º, Ranging from 120º to 230º)

Wind Velocity

9 km/h (05 kt)

Gusts

None

Visibility

No Significant Reductions

Sea Level Pressure

1023 hPa (Hectopascals)

Layers of Clouds

None

METAR SBGL 191200Z 17005KT 120V230 CAVOK 21/17 Q1023

Weather Forecast

SBGL | Rio de Janeiro–Galeão International Airport

Rio de Janeiro, Brazil

Forecast valid for the next 29 Hours

From now on it is expected:

Partly Cloudy Sky

Light to Moderate Winds from North

In 2 to 4 hours it is expected the begining of:

Moderate Winds from SouthEast

In 8 hours it is expected the begining of 7 hours with intermittent periods of:

Moderate Winds from East with Gusts

In 15 to 17 hours it is expected the begining of:

Moderate Winds from North

In 27 to 29 hours it is expected the begining of:

Moderate Winds from NorthEast

Maximum Temperature

25 ºC in 4 Hours

Minimum Temperature

18 ºC in 19 Hours

TAF SBGL 190928Z 1912/2018 34005KT 9999 SCT020 TX25/1917Z TN18/2008Z BECMG 1915/1917 14013KT PROB40 TEMPO 1921/2004 08015G25KT BECMG 2004/2006 34010KT BECMG 2016/2018 04010KT RMK PHQ